KHOP/HOP METAR and TAF weather

Enter ICAO airport designator
Station Type Date Time Source
KHOP METAR 2018/12/11 20:56 UTC NOAA

KHOP 112056Z AUTO 21009KT 10SM CLR 09/M06 A3021 RMK AO2 SLP236 T00881058 57018


Station Type Date Time Source
KHOP Decoded METAR 2018/12/11 20:56 UTC NOAA

Fort Campbell U. S. Army Airfield, KY, United States (KHOP) 36-40N 087-30W 174M
Dec 11, 2018 - 03:56 PM EST / 2018.12.11 2056 UTC
Wind: from the SSW (210 degrees) at 10 MPH (9 KT):0
Visibility: 10 mile(s):0
Sky conditions: clear
Temperature: 47.8 F (8.8 C)
Dew Point: 21.6 F (-5.8 C)
Relative Humidity: 35%
Pressure (altimeter): 30.21 in. Hg (1023 hPa)
Pressure tendency: 0.05 inches (1.8 hPa) lower than three hours ago
ob: KHOP 112056Z AUTO 21009KT 10SM CLR 09/M06 A3021 RMK AO2 SLP236 T00881058 57018
cycle: 21

Station Type Date Time Source
KHOP TAF 2018/12/11 16:09 UTC NOAA

TAF KHOP 111600Z 1116/1222 23009KT 9999 SKC QNH3014INS
BECMG 1205/1206 21009KT 9999 BKN200 510202 QNH3010INS
BECMG 1208/1209 20009KT 9999 BKN180 WS020/25038KT QNH3005INS
BECMG 1217/1218 20015G25KT 9999 BKN030 510202 QNH3002INS
BECMG 1220/1221 22012KT 9999 BKN015 OVC025 QNH3003INS TX06/1120Z TNM01/1203Z


Example: see airport list